Time;durP1;ratioP1;P1;durP2;ratioP2;P2;SDS_P1;SDS_P2;PMS_P1;PMS_P2;Temp;Humidity;BMP_temperature;BMP_pressure;BME280_temperature;BME280_humidity;BME280_pressure;Samples;Min_cycle;Max_cycle;Signal;HPM_P1;HPM_P2
2023/04/06 00:00:58;;;;;;;15.00;11.60;;;;;;;-150.27;100.00;61272.81;5069210;29;20033;-77
2023/04/06 00:03:30;;;;;;;20.07;12.43;;;;;;;-150.27;100.00;61272.81;5072561;29;20275;-76
2023/04/06 00:06:01;;;;;;;16.13;11.67;;;;;;;-150.27;100.00;61272.81;5072248;29;20025;-76
2023/04/06 00:08:32;;;;;;;17.93;11.67;;;;;;;-150.27;100.00;61272.81;5056647;29;20033;-76
2023/04/06 00:11:04;;;;;;;17.73;11.63;;;;;;;-150.27;100.00;61272.81;5073753;29;20068;-75
2023/04/06 00:13:35;;;;;;;17.20;11.67;;;;;;;-150.27;100.00;61272.81;5072132;29;20037;-76
2023/04/06 00:16:06;;;;;;;15.70;11.20;;;;;;;-150.27;100.00;61272.81;5072244;29;20033;-76
2023/04/06 00:18:39;;;;;;;18.50;10.67;;;;;;;-150.27;100.00;61272.81;5071134;29;20726;-76
2023/04/06 00:21:14;;;;;;;21.33;12.40;;;;;;;-150.27;100.00;61272.81;5058008;29;20029;-76
2023/04/06 00:23:45;;;;;;;14.93;10.23;;;;;;;-150.27;100.00;61272.81;5071569;29;20421;-76
2023/04/06 00:26:17;;;;;;;15.27;11.10;;;;;;;-150.27;100.00;61272.81;5070381;29;20088;-76
2023/04/06 00:28:50;;;;;;;18.07;11.80;;;;;;;-150.27;100.00;61272.81;5062889;29;20029;-75
2023/04/06 00:31:21;;;;;;;17.87;10.67;;;;;;;-150.27;100.00;61272.81;5053788;29;20121;-74
2023/04/06 00:33:52;;;;;;;14.50;10.73;;;;;;;-150.27;100.00;61272.81;5055713;29;20111;-77
2023/04/06 00:36:23;;;;;;;19.60;10.03;;;;;;;-150.27;100.00;61272.81;5072270;29;20073;-74
2023/04/06 00:38:55;;;;;;;13.77;11.00;;;;;;;-150.27;100.00;61272.81;5067750;29;20508;-76
2023/04/06 00:41:26;;;;;;;16.67;10.37;;;;;;;-150.27;100.00;61272.81;5078730;29;20037;-73
2023/04/06 00:43:58;;;;;;;16.53;10.80;;;;;;;-150.27;100.00;61272.81;5054742;29;20071;-75
2023/04/06 00:46:29;;;;;;;17.00;10.30;;;;;;;-150.27;100.00;61272.81;5071532;29;20558;-76
2023/04/06 00:49:00;;;;;;;15.60;10.87;;;;;;;-150.27;100.00;61272.81;5071290;29;20025;-77
2023/04/06 00:51:31;;;;;;;16.83;11.50;;;;;;;-150.27;100.00;61272.81;5072003;29;20425;-76
2023/04/06 00:54:03;;;;;;;15.03;11.60;;;;;;;-150.27;100.00;61272.81;5073148;29;20033;-79
2023/04/06 00:56:35;;;;;;;16.30;10.70;;;;;;;-150.27;100.00;61272.81;5046296;29;20041;-75
2023/04/06 00:59:06;;;;;;;14.73;11.27;;;;;;;-150.27;100.00;61272.81;5050280;29;20060;-74
2023/04/06 01:01:37;;;;;;;14.93;11.20;;;;;;;-150.27;100.00;61272.81;5071782;29;20041;-75
2023/04/06 01:04:09;;;;;;;19.57;11.97;;;;;;;-150.27;100.00;61272.81;5071380;29;20060;-73
2023/04/06 01:06:41;;;;;;;17.23;10.60;;;;;;;-150.27;100.00;61272.81;5072124;29;20040;-73
2023/04/06 01:09:12;;;;;;;17.67;11.83;;;;;;;-150.27;100.00;61272.81;5070820;29;20040;-76
2023/04/06 01:11:43;;;;;;;15.93;10.17;;;;;;;-150.27;100.00;61272.81;5071840;29;20029;-75
2023/04/06 01:14:15;;;;;;;15.77;11.37;;;;;;;-150.27;100.00;61272.81;5053237;29;20124;-75
2023/04/06 01:16:46;;;;;;;18.53;12.23;;;;;;;-150.27;100.00;61272.81;5070573;29;20488;-74
2023/04/06 01:19:17;;;;;;;17.20;12.17;;;;;;;-150.27;100.00;61272.81;5071968;29;20116;-74
2023/04/06 01:21:50;;;;;;;21.47;12.87;;;;;;;-150.27;100.00;61272.81;5051243;29;20032;-76
2023/04/06 01:24:21;;;;;;;17.87;12.07;;;;;;;-150.27;100.00;61272.81;5045080;29;20036;-77
2023/04/06 01:26:52;;;;;;;19.50;12.17;;;;;;;-150.27;100.00;61272.81;5071509;29;20041;-77
2023/04/06 01:29:24;;;;;;;15.07;11.07;;;;;;;-150.27;100.00;61272.81;5054217;29;20477;-75
2023/04/06 01:31:55;;;;;;;18.13;11.47;;;;;;;-150.27;100.00;61272.81;5053500;29;20112;-75
2023/04/06 01:34:27;;;;;;;23.80;12.23;;;;;;;-150.27;100.00;61272.81;5071153;29;20037;-76
2023/04/06 01:36:58;;;;;;;18.17;11.60;;;;;;;-150.27;100.00;61272.81;5070013;29;20092;-77
2023/04/06 01:39:29;;;;;;;16.27;12.30;;;;;;;-150.27;100.00;61272.81;5066189;29;20111;-76
2023/04/06 01:42:01;;;;;;;18.73;12.20;;;;;;;-150.27;100.00;61272.81;5070497;29;20291;-77
2023/04/06 01:44:32;;;;;;;19.27;12.80;;;;;;;-150.27;100.00;61272.81;5071154;29;20579;-76
2023/04/06 01:47:03;;;;;;;16.77;12.53;;;;;;;-150.27;100.00;61272.81;5052976;29;20096;-73
2023/04/06 01:49:35;;;;;;;18.70;13.40;;;;;;;-150.27;100.00;61272.81;5075282;29;20029;-77
2023/04/06 01:52:06;;;;;;;19.60;13.27;;;;;;;-150.27;100.00;61272.81;5059491;29;20481;-73
2023/04/06 01:54:37;;;;;;;19.17;13.73;;;;;;;-150.27;100.00;61272.81;5069228;29;20056;-76
2023/04/06 01:57:10;;;;;;;19.93;14.03;;;;;;;-150.27;100.00;61272.81;5067130;29;20213;-77
2023/04/06 01:59:41;;;;;;;20.67;13.43;;;;;;;-150.27;100.00;61272.81;5053589;29;20033;-76
2023/04/06 02:02:12;;;;;;;24.77;14.83;;;;;;;-150.27;100.00;61272.81;5075893;29;20067;-76
2023/04/06 02:04:44;;;;;;;17.40;13.10;;;;;;;-150.27;100.00;61272.81;5065049;29;20033;-74
2023/04/06 02:07:15;;;;;;;19.77;13.47;;;;;;;-150.27;100.00;61272.81;5073123;29;20502;-77
2023/04/06 02:09:46;;;;;;;20.93;15.10;;;;;;;-150.27;100.00;61272.81;5060058;29;20041;-74
2023/04/06 02:12:17;;;;;;;22.43;14.50;;;;;;;-150.27;100.00;61272.81;5070676;29;20308;-76
2023/04/06 02:14:49;;;;;;;21.33;14.03;;;;;;;-150.27;100.00;61272.81;5069470;29;20064;-77
2023/04/06 02:17:20;;;;;;;23.37;14.40;;;;;;;-150.27;100.00;61272.81;5073266;29;20064;-75
2023/04/06 02:19:51;;;;;;;19.20;13.00;;;;;;;-150.27;100.00;61272.81;5075100;29;20032;-76
2023/04/06 02:22:23;;;;;;;21.97;14.33;;;;;;;-150.27;100.00;61272.81;5072644;29;20481;-76
2023/04/06 02:24:54;;;;;;;21.27;14.77;;;;;;;-150.27;100.00;61272.81;5052929;29;20408;-76
2023/04/06 02:27:25;;;;;;;20.40;14.57;;;;;;;-150.27;100.00;61272.81;5052533;29;20383;-76
2023/04/06 02:29:56;;;;;;;19.90;14.30;;;;;;;-150.27;100.00;61272.81;5051075;29;20427;-75
2023/04/06 02:32:28;;;;;;;21.93;15.17;;;;;;;-150.27;100.00;61272.81;5053082;29;20035;-73
2023/04/06 02:35:00;;;;;;;22.97;15.93;;;;;;;-150.27;100.00;61272.81;5068905;29;20041;-76
2023/04/06 02:37:31;;;;;;;23.67;14.70;;;;;;;-150.27;100.00;61272.81;5053624;29;20089;-77
2023/04/06 02:40:03;;;;;;;20.83;14.87;;;;;;;-150.27;100.00;61272.81;5070177;29;20366;-73
2023/04/06 02:42:34;;;;;;;18.97;14.17;;;;;;;-150.27;100.00;61272.81;5069884;29;20202;-76
2023/04/06 02:45:06;;;;;;;19.70;15.17;;;;;;;-150.27;100.00;61272.81;5069090;29;20080;-77
2023/04/06 02:47:37;;;;;;;23.27;15.03;;;;;;;-150.27;100.00;61272.81;5069884;29;20204;-74
2023/04/06 02:50:09;;;;;;;22.17;15.70;;;;;;;-150.27;100.00;61272.81;5070633;29;20056;-76
2023/04/06 02:52:41;;;;;;;23.83;15.03;;;;;;;-150.27;100.00;61272.81;5048054;29;20034;-76
2023/04/06 02:55:12;;;;;;;22.87;15.77;;;;;;;-150.27;100.00;61272.81;5067254;29;20068;-74
2023/04/06 02:57:43;;;;;;;21.30;14.37;;;;;;;-150.27;100.00;61272.81;5069966;29;20037;-77
2023/04/06 03:00:15;;;;;;;26.43;15.43;;;;;;;-150.27;100.00;61272.81;5067131;29;20041;-76
2023/04/06 03:02:46;;;;;;;23.27;15.60;;;;;;;-150.27;100.00;61272.81;5069929;29;20040;-75
2023/04/06 03:05:17;;;;;;;25.27;16.97;;;;;;;-150.27;100.00;61272.81;5076945;29;20110;-74
2023/04/06 03:07:49;;;;;;;22.30;16.73;;;;;;;-150.27;100.00;61272.81;5048112;29;20100;-76
2023/04/06 03:10:20;;;;;;;24.23;16.60;;;;;;;-150.27;100.00;61272.81;5070981;29;20075;-75
2023/04/06 03:12:51;;;;;;;21.83;16.47;;;;;;;-150.27;100.00;61272.81;5057056;29;20465;-76
2023/04/06 03:15:23;;;;;;;24.30;16.07;;;;;;;-150.27;100.00;61272.81;5072478;29;20029;-76
2023/04/06 03:17:54;;;;;;;25.60;18.37;;;;;;;-150.27;100.00;61272.81;5057397;29;20393;-73
2023/04/06 03:20:25;;;;;;;23.67;17.87;;;;;;;-150.27;100.00;61272.81;5063241;29;20033;-75
2023/04/06 03:22:58;;;;;;;27.37;18.63;;;;;;;-150.27;100.00;61272.81;5069016;29;20033;-76
2023/04/06 03:25:30;;;;;;;25.70;15.80;;;;;;;-150.27;100.00;61272.81;5073467;29;20058;-73
2023/04/06 03:28:01;;;;;;;25.57;18.10;;;;;;;-150.27;100.00;61272.81;5073531;29;20033;-77
2023/04/06 03:30:34;;;;;;;24.90;16.77;;;;;;;-150.27;100.00;61272.81;5049452;29;20124;-77
2023/04/06 03:33:05;;;;;;;25.70;16.70;;;;;;;-150.27;100.00;61272.81;5065372;29;20029;-75
2023/04/06 03:35:37;;;;;;;24.30;17.07;;;;;;;-150.27;100.00;61272.81;5073192;29;20033;-76
2023/04/06 03:38:08;;;;;;;27.47;17.07;;;;;;;-150.27;100.00;61272.81;5055458;29;20433;-73
2023/04/06 03:40:39;;;;;;;26.73;18.03;;;;;;;-150.27;100.00;61272.81;5056886;29;20028;-75
2023/04/06 03:43:11;;;;;;;22.53;16.93;;;;;;;-150.27;100.00;61272.81;5056315;29;20049;-76
2023/04/06 03:45:42;;;;;;;25.47;17.70;;;;;;;-150.27;100.00;61272.81;5070477;29;20397;-76
2023/04/06 03:48:13;;;;;;;24.33;17.47;;;;;;;-150.27;100.00;61272.81;5068837;29;20487;-73
2023/04/06 03:50:45;;;;;;;25.03;18.40;;;;;;;-150.27;100.00;61272.81;5073811;29;20485;-74
2023/04/06 03:53:16;;;;;;;25.20;17.33;;;;;;;-150.27;100.00;61272.81;5056488;29;20095;-75
2023/04/06 03:55:47;;;;;;;23.30;16.53;;;;;;;-150.27;100.00;61272.81;5076332;29;20093;-74
2023/04/06 03:58:19;;;;;;;22.97;16.23;;;;;;;-150.27;100.00;61272.81;5071717;29;20044;-76
2023/04/06 04:00:50;;;;;;;25.27;17.37;;;;;;;-150.27;100.00;61272.81;5069248;29;20039;-76
2023/04/06 04:03:23;;;;;;;26.40;17.00;;;;;;;-150.27;100.00;61272.81;5065808;29;20459;-77
2023/04/06 04:05:57;;;;;;;21.17;16.00;;;;;;;-150.27;100.00;61272.81;5070137;29;20037;-76
2023/04/06 04:08:28;;;;;;;29.42;18.02;;;;;;;-150.27;100.00;61272.81;5071837;29;20075;-76
2023/04/06 04:10:59;;;;;;;24.90;15.87;;;;;;;-150.27;100.00;61272.81;5052955;29;20502;-76
2023/04/06 04:13:31;;;;;;;26.93;16.87;;;;;;;-150.27;100.00;61272.81;5079196;29;20096;-75
2023/04/06 04:16:02;;;;;;;30.03;16.90;;;;;;;-150.27;100.00;61272.81;5049522;29;20041;-76
2023/04/06 04:18:33;;;;;;;25.43;16.70;;;;;;;-150.27;100.00;61272.81;5071042;29;20029;-77
2023/04/06 04:21:05;;;;;;;34.20;17.57;;;;;;;-150.27;100.00;61272.81;5062779;29;20319;-76
2023/04/06 04:23:36;;;;;;;28.43;16.80;;;;;;;-150.27;100.00;61272.81;5062907;29;20037;-77
2023/04/06 04:26:07;;;;;;;29.60;17.07;;;;;;;-150.27;100.00;61272.81;5046674;29;20123;-76
2023/04/06 04:28:38;;;;;;;29.13;16.70;;;;;;;-150.27;100.00;61272.81;5072006;29;20037;-75
2023/04/06 04:31:10;;;;;;;26.57;18.03;;;;;;;-150.27;100.00;61272.81;5075380;29;20025;-75
2023/04/06 04:33:41;;;;;;;29.50;16.63;;;;;;;-150.27;100.00;61272.81;5057311;29;20017;-76
2023/04/06 04:36:13;;;;;;;22.63;16.17;;;;;;;-150.27;100.00;61272.81;5066664;29;20040;-76
2023/04/06 04:38:44;;;;;;;26.33;17.37;;;;;;;-150.27;100.00;61272.81;5069323;29;20021;-75
2023/04/06 04:41:15;;;;;;;25.43;17.83;;;;;;;-150.27;100.00;61272.81;5072380;29;20033;-74
2023/04/06 04:43:47;;;;;;;25.80;16.27;;;;;;;-150.27;100.00;61272.81;5072511;29;20052;-75
2023/04/06 04:46:18;;;;;;;25.03;18.10;;;;;;;-150.27;100.00;61272.81;5071366;29;20393;-76
2023/04/06 04:48:49;;;;;;;22.90;16.57;;;;;;;-150.27;100.00;61272.81;5068413;29;20093;-76
2023/04/06 04:51:21;;;;;;;24.17;15.93;;;;;;;-150.27;100.00;61272.81;5051483;29;20319;-74
2023/04/06 04:53:52;;;;;;;26.83;17.30;;;;;;;-150.27;100.00;61272.81;5066850;29;20496;-76
2023/04/06 04:56:23;;;;;;;37.10;18.63;;;;;;;-150.27;100.00;61272.81;5053019;29;20037;-75
2023/04/06 04:58:55;;;;;;;23.77;16.43;;;;;;;-150.27;100.00;61272.81;5050560;29;20034;-75
2023/04/06 05:01:26;;;;;;;24.07;17.57;;;;;;;-150.27;100.00;61272.81;5068727;29;20429;-75
2023/04/06 05:03:57;;;;;;;27.97;17.77;;;;;;;-150.27;100.00;61272.81;5071568;29;20044;-73
2023/04/06 05:06:29;;;;;;;25.23;17.40;;;;;;;-150.27;100.00;61272.81;5070806;29;20044;-76
2023/04/06 05:09:00;;;;;;;27.40;18.13;;;;;;;-150.27;100.00;61272.81;5071454;29;20116;-76
2023/04/06 05:11:32;;;;;;;25.27;16.87;;;;;;;-150.27;100.00;61272.81;5058637;29;20068;-77
2023/04/06 05:14:03;;;;;;;28.10;17.97;;;;;;;-150.27;100.00;61272.81;5055162;29;20029;-75
2023/04/06 05:16:35;;;;;;;21.03;15.17;;;;;;;-150.27;100.00;61272.81;5070463;29;20029;-73
2023/04/06 05:19:06;;;;;;;23.07;16.87;;;;;;;-150.27;100.00;61272.81;5072210;29;20105;-76
2023/04/06 05:21:37;;;;;;;23.43;16.27;;;;;;;-150.27;100.00;61272.81;5071453;29;20029;-76
2023/04/06 05:24:09;;;;;;;25.77;16.47;;;;;;;-150.27;100.00;61272.81;5058042;29;20515;-76
2023/04/06 05:26:40;;;;;;;25.37;16.53;;;;;;;-150.27;100.00;61272.81;5053732;29;20051;-75
2023/04/06 05:29:11;;;;;;;27.13;16.57;;;;;;;-150.27;100.00;61272.81;5065221;29;20033;-76
2023/04/06 05:31:42;;;;;;;26.97;17.40;;;;;;;-150.27;100.00;61272.81;5062644;29;20037;-77
2023/04/06 05:34:14;;;;;;;24.57;16.57;;;;;;;-150.27;100.00;61272.81;5064755;29;20033;-79
2023/04/06 05:36:46;;;;;;;24.57;15.33;;;;;;;-150.27;100.00;61272.81;5071011;29;20043;-78
2023/04/06 05:39:17;;;;;;;23.60;15.73;;;;;;;-150.27;100.00;61272.81;5061211;29;20024;-75
2023/04/06 05:41:49;;;;;;;24.57;17.20;;;;;;;-150.27;100.00;61272.81;5065517;29;20429;-74
2023/04/06 05:44:20;;;;;;;23.80;16.07;;;;;;;-150.27;100.00;61272.81;5061728;29;20123;-75
2023/04/06 05:46:51;;;;;;;20.07;16.33;;;;;;;-150.27;100.00;61272.81;5062356;29;20140;-76
2023/04/06 05:49:23;;;;;;;22.57;16.27;;;;;;;-150.27;100.00;61272.81;5068993;29;20048;-76
2023/04/06 05:51:55;;;;;;;23.67;16.30;;;;;;;-150.27;100.00;61272.81;5059891;29;20048;-77
2023/04/06 05:54:26;;;;;;;25.27;16.60;;;;;;;-150.27;100.00;61272.81;5070804;29;20033;-74
2023/04/06 05:56:58;;;;;;;22.00;15.63;;;;;;;-150.27;100.00;61272.81;5050326;29;20040;-75
2023/04/06 05:59:32;;;;;;;22.70;16.87;;;;;;;-150.27;100.00;61272.81;5066404;29;20453;-73
2023/04/06 06:02:03;;;;;;;21.92;15.23;;;;;;;-150.27;100.00;61272.81;5052525;29;20067;-71
2023/04/06 06:04:35;;;;;;;21.30;15.23;;;;;;;-150.27;100.00;61272.81;5051411;29;20124;-70
2023/04/06 06:07:06;;;;;;;20.17;15.37;;;;;;;-150.27;100.00;61272.81;5071411;29;20037;-71
2023/04/06 06:09:37;;;;;;;23.97;16.60;;;;;;;-150.27;100.00;61272.81;5054075;29;20069;-71
2023/04/06 06:12:09;;;;;;;28.53;18.27;;;;;;;-150.27;100.00;61272.81;5072095;29;20025;-70
2023/04/06 06:14:40;;;;;;;23.77;15.53;;;;;;;-150.27;100.00;61272.81;5068998;29;20036;-70
2023/04/06 06:17:12;;;;;;;27.70;16.73;;;;;;;-150.27;100.00;61272.81;5053768;29;20486;-71
2023/04/06 06:19:43;;;;;;;22.00;16.37;;;;;;;-150.27;100.00;61272.81;5070412;29;20033;-69
2023/04/06 06:22:14;;;;;;;26.93;16.03;;;;;;;-150.27;100.00;61272.81;5070158;29;20024;-70
2023/04/06 06:24:46;;;;;;;27.87;17.10;;;;;;;-150.27;100.00;61272.81;5063799;29;20097;-70
2023/04/06 06:27:17;;;;;;;24.60;15.07;;;;;;;-150.27;100.00;61272.81;5070607;29;20119;-70
2023/04/06 06:29:48;;;;;;;26.50;16.93;;;;;;;-150.27;100.00;61272.81;5061649;29;20037;-69
2023/04/06 06:32:20;;;;;;;24.13;16.77;;;;;;;-150.27;100.00;61272.81;5071095;29;20029;-69
2023/04/06 06:34:51;;;;;;;24.83;16.47;;;;;;;-150.27;100.00;61272.81;5072066;29;20717;-69
2023/04/06 06:37:22;;;;;;;24.77;15.60;;;;;;;-150.27;100.00;61272.81;5071111;29;20493;-69
2023/04/06 06:39:54;;;;;;;27.33;16.87;;;;;;;-150.27;100.00;61272.81;5069730;29;20165;-69
2023/04/06 06:42:25;;;;;;;28.50;16.73;;;;;;;-150.27;100.00;61272.81;5062430;29;20036;-69
2023/04/06 06:44:57;;;;;;;25.83;16.47;;;;;;;-150.27;100.00;61272.81;5046580;29;20041;-70
2023/04/06 06:47:28;;;;;;;25.03;15.37;;;;;;;-150.27;100.00;61272.81;5067943;29;20025;-72
2023/04/06 06:50:00;;;;;;;23.87;15.87;;;;;;;-150.27;100.00;61272.81;5071147;29;20108;-72
2023/04/06 06:52:31;;;;;;;28.37;17.13;;;;;;;-150.27;100.00;61272.81;5071864;29;20360;-72
2023/04/06 06:55:02;;;;;;;26.07;16.27;;;;;;;-150.27;100.00;61272.81;5070310;29;20040;-73
2023/04/06 06:57:34;;;;;;;25.20;15.67;;;;;;;-150.27;100.00;61272.81;5071293;29;20036;-72
2023/04/06 07:00:07;;;;;;;30.33;16.77;;;;;;;-150.27;100.00;61272.81;5069189;29;20309;-70
2023/04/06 07:02:38;;;;;;;25.03;15.67;;;;;;;-150.27;100.00;61272.81;5069491;29;20041;-72
2023/04/06 07:05:10;;;;;;;26.93;15.53;;;;;;;-150.27;100.00;61272.81;5070883;29;20029;-71
2023/04/06 07:07:41;;;;;;;25.50;16.37;;;;;;;-150.27;100.00;61272.81;5070718;29;20040;-71
2023/04/06 07:10:12;;;;;;;23.37;15.93;;;;;;;-150.27;100.00;61272.81;5057565;29;20037;-71
2023/04/06 07:12:44;;;;;;;23.40;17.03;;;;;;;-150.27;100.00;61272.81;5066838;29;20037;-72
2023/04/06 07:15:16;;;;;;;27.27;16.37;;;;;;;-150.27;100.00;61272.81;5060655;29;20705;-73
2023/04/06 07:17:47;;;;;;;31.43;17.00;;;;;;;-150.27;100.00;61272.81;5067382;29;20021;-73
2023/04/06 07:20:20;;;;;;;20.73;15.23;;;;;;;-150.27;100.00;61272.81;5070460;29;20056;-73
2023/04/06 07:22:51;;;;;;;27.80;16.13;;;;;;;-150.27;100.00;61272.81;5050697;29;20033;-75
2023/04/06 07:25:22;;;;;;;22.80;15.83;;;;;;;-150.27;100.00;61272.81;5062428;29;20424;-73
2023/04/06 07:27:54;;;;;;;23.80;16.93;;;;;;;-150.27;100.00;61272.81;5064403;29;20040;-73
2023/04/06 07:30:27;;;;;;;27.40;17.07;;;;;;;-150.27;100.00;61272.81;5066139;29;20127;-73
2023/04/06 07:32:59;;;;;;;20.37;15.37;;;;;;;-150.27;100.00;61272.81;5061836;29;20029;-73
2023/04/06 07:35:30;;;;;;;26.83;16.07;;;;;;;-150.27;100.00;61272.81;5068830;29;20021;-73
2023/04/06 07:38:02;;;;;;;25.03;15.73;;;;;;;-150.27;100.00;61272.81;5065789;29;20417;-74
2023/04/06 07:40:33;;;;;;;22.27;16.07;;;;;;;-150.27;100.00;61272.81;5068742;29;20060;-73
2023/04/06 07:43:05;;;;;;;28.13;16.60;;;;;;;-150.27;100.00;61272.81;5053431;29;20041;-74
2023/04/06 07:45:36;;;;;;;25.57;16.97;;;;;;;-150.27;100.00;61272.81;5069823;29;20037;-73
2023/04/06 07:48:07;;;;;;;25.43;16.77;;;;;;;-150.27;100.00;61272.81;5067891;29;20080;-74
2023/04/06 07:50:39;;;;;;;24.47;16.47;;;;;;;-150.27;100.00;61272.81;5070002;29;20025;-73
2023/04/06 07:53:10;;;;;;;28.30;16.27;;;;;;;-150.27;100.00;61272.81;5047795;29;20116;-75
2023/04/06 07:55:42;;;;;;;23.37;15.60;;;;;;;-150.27;100.00;61272.81;5048910;29;20488;-76
2023/04/06 07:58:13;;;;;;;25.37;16.43;;;;;;;-150.27;100.00;61272.81;5072388;29;20520;-76
2023/04/06 08:00:44;;;;;;;28.93;16.97;;;;;;;-150.27;100.00;61272.81;5069538;29;20025;-73
2023/04/06 08:03:16;;;;;;;22.00;16.00;;;;;;;-150.27;100.00;61272.81;5057347;29;20037;-73
2023/04/06 08:05:47;;;;;;;27.13;15.67;;;;;;;-150.27;100.00;61272.81;5071955;29;20029;-73
2023/04/06 08:08:21;;;;;;;22.10;15.20;;;;;;;-150.27;100.00;61272.81;5066248;29;20040;-73
2023/04/06 08:10:52;;;;;;;29.37;16.07;;;;;;;-150.27;100.00;61272.81;5067311;29;20029;-74
2023/04/06 08:13:23;;;;;;;30.70;17.47;;;;;;;-150.27;100.00;61272.81;5073732;29;20037;-73
2023/04/06 08:15:54;;;;;;;26.47;17.40;;;;;;;-150.27;100.00;61272.81;5072357;29;20040;-73
2023/04/06 08:18:26;;;;;;;29.83;17.27;;;;;;;-150.27;100.00;61272.81;5055078;29;20044;-73
2023/04/06 08:20:57;;;;;;;21.23;16.03;;;;;;;-150.27;100.00;61272.81;5052987;29;20068;-70
2023/04/06 08:23:28;;;;;;;29.33;16.80;;;;;;;-150.27;100.00;61272.81;5069943;29;20045;-73
2023/04/06 08:26:00;;;;;;;21.93;14.80;;;;;;;-150.27;100.00;61272.81;5064046;29;20085;-73
2023/04/06 08:28:32;;;;;;;22.73;15.50;;;;;;;-150.27;100.00;61272.81;5069974;29;20040;-73
2023/04/06 08:31:06;;;;;;;25.33;15.33;;;;;;;-150.27;100.00;61272.81;5071525;29;20130;-73
2023/04/06 08:33:39;;;;;;;23.77;16.20;;;;;;;-150.27;100.00;61272.81;5056811;29;20060;-72
2023/04/06 08:36:12;;;;;;;23.47;16.23;;;;;;;-150.27;100.00;61272.81;5053198;29;20033;-72
2023/04/06 08:38:43;;;;;;;25.83;17.03;;;;;;;-150.27;100.00;61272.81;5065201;29;20089;-73
2023/04/06 08:41:18;;;;;;;31.00;16.50;;;;;;;-150.27;100.00;61272.81;5056509;29;20032;-73
2023/04/06 08:43:54;;;;;;;20.73;15.43;;;;;;;-150.27;100.00;61272.81;5073070;29;20088;-73
2023/04/06 08:46:29;;;;;;;26.77;16.30;;;;;;;-150.27;100.00;61272.81;5057536;29;20065;-75
2023/04/06 08:49:02;;;;;;;30.30;16.60;;;;;;;-150.27;100.00;61272.81;5062849;29;20033;-71
2023/04/06 08:51:34;;;;;;;22.60;16.03;;;;;;;-150.27;100.00;61272.81;5069063;29;20041;-73
2023/04/06 08:54:06;;;;;;;26.77;15.57;;;;;;;-150.27;100.00;61272.81;5066699;29;20021;-73
2023/04/06 08:56:39;;;;;;;27.50;16.60;;;;;;;-150.27;100.00;61272.81;5071735;29;20033;-71
2023/04/06 08:59:10;;;;;;;23.93;15.67;;;;;;;-150.27;100.00;61272.81;5072172;29;20033;-71
2023/04/06 09:01:45;;;;;;;27.43;17.80;;;;;;;-150.27;100.00;61272.81;5070149;29;20519;-72
2023/04/06 09:04:16;;;;;;;25.23;16.83;;;;;;;-150.27;100.00;61272.81;5067719;29;20039;-71
2023/04/06 09:06:49;;;;;;;25.70;16.80;;;;;;;-150.27;100.00;61272.81;5073427;29;20041;-71
2023/04/06 09:09:21;;;;;;;27.50;17.00;;;;;;;-150.27;100.00;61272.81;5072429;29;20381;-71
2023/04/06 09:11:53;;;;;;;25.47;18.37;;;;;;;-150.27;100.00;61272.81;5056593;29;20040;-72
2023/04/06 09:14:40;;;;;;;25.37;17.37;;;;;;;-150.27;100.00;61272.81;5072581;29;20211;-71
2023/04/06 09:17:26;;;;;;;22.67;16.67;;;;;;;-150.27;100.00;61272.81;5073154;29;20033;-72
2023/04/06 09:19:58;;;;;;;21.50;17.10;;;;;;;-150.27;100.00;61272.81;5073161;29;20036;-72
2023/04/06 09:22:37;;;;;;;25.90;17.13;;;;;;;-150.27;100.00;61272.81;5073593;29;20025;-71
2023/04/06 09:25:09;;;;;;;25.43;17.03;;;;;;;-150.27;100.00;61272.81;5072798;29;20037;-71
2023/04/06 09:27:40;;;;;;;24.17;17.93;;;;;;;-150.27;100.00;61272.81;5073405;29;20536;-72
2023/04/06 09:30:13;;;;;;;25.17;16.77;;;;;;;-150.27;100.00;61272.81;5071708;29;20025;-72
2023/04/06 09:32:53;;;;;;;22.17;16.03;;;;;;;-150.27;100.00;61272.81;5073199;29;20029;-72
2023/04/06 09:35:26;;;;;;;23.50;14.67;;;;;;;-150.27;100.00;61272.81;5072476;29;20056;-70
2023/04/06 09:37:58;;;;;;;23.43;15.67;;;;;;;-150.27;100.00;61272.81;5072318;29;20033;-72
2023/04/06 09:40:29;;;;;;;21.10;15.67;;;;;;;-150.27;100.00;61272.81;5072312;29;20088;-72
2023/04/06 09:43:02;;;;;;;22.57;15.60;;;;;;;-150.27;100.00;61272.81;5071501;29;20045;-71
2023/04/06 09:45:33;;;;;;;22.83;15.87;;;;;;;-150.27;100.00;61272.81;5071922;29;20408;-72
2023/04/06 09:48:05;;;;;;;22.33;16.50;;;;;;;-150.27;100.00;61272.81;5055596;29;20065;-71
2023/04/06 09:50:37;;;;;;;20.40;15.03;;;;;;;-150.27;100.00;61272.81;5072751;29;20089;-71
2023/04/06 09:53:09;;;;;;;19.90;13.73;;;;;;;-150.27;100.00;61272.81;5071636;29;20061;-69
2023/04/06 09:55:43;;;;;;;16.77;12.87;;;;;;;-150.27;100.00;61272.81;5072681;29;20052;-69
2023/04/06 09:58:19;;;;;;;16.90;12.93;;;;;;;-150.27;100.00;61272.81;5071621;29;20028;-69
2023/04/06 10:01:09;;;;;;;19.60;12.97;;;;;;;-150.27;100.00;61272.81;5071463;29;20056;-71
2023/04/06 10:03:56;;;;;;;18.80;11.97;;;;;;;-150.27;100.00;61272.81;5072495;29;20048;-72
2023/04/06 10:06:32;;;;;;;20.60;12.73;;;;;;;-150.27;100.00;61272.81;5059447;29;20496;-72
2023/04/06 10:09:07;;;;;;;20.13;13.57;;;;;;;-150.27;100.00;61272.81;5072728;29;20032;-72
2023/04/06 10:11:39;;;;;;;16.87;12.00;;;;;;;-150.27;100.00;61272.81;5071707;29;20362;-72
2023/04/06 10:14:11;;;;;;;14.97;11.23;;;;;;;-150.27;100.00;61272.81;5054743;29;20032;-73
2023/04/06 10:16:43;;;;;;;17.00;11.60;;;;;;;-150.27;100.00;61272.81;5042363;29;20028;-72
2023/04/06 10:19:21;;;;;;;15.10;11.30;;;;;;;-150.27;100.00;61272.81;5071533;29;20029;-72
2023/04/06 10:21:57;;;;;;;15.07;11.03;;;;;;;-150.27;100.00;61272.81;5071582;29;20388;-75
2023/04/06 10:24:28;;;;;;;15.30;11.20;;;;;;;-150.27;100.00;61272.81;5071947;29;20037;-72
2023/04/06 10:27:06;;;;;;;17.07;10.97;;;;;;;-150.27;100.00;61272.81;5047355;29;20474;-72
2023/04/06 10:29:48;;;;;;;14.20;11.03;;;;;;;-150.27;100.00;61272.81;5035588;29;20029;-72
2023/04/06 10:32:19;;;;;;;14.53;10.80;;;;;;;-150.27;100.00;61272.81;5071178;29;20047;-70
2023/04/06 10:34:51;;;;;;;18.33;11.80;;;;;;;-150.27;100.00;61272.81;5071450;29;20390;-69
2023/04/06 10:37:22;;;;;;;15.60;11.80;;;;;;;-150.27;100.00;61272.81;5071450;29;20462;-68
2023/04/06 10:40:00;;;;;;;19.70;11.90;;;;;;;-150.27;100.00;61272.81;5059441;29;20056;-69
2023/04/06 10:42:38;;;;;;;19.70;11.83;;;;;;;-150.27;100.00;61272.81;5066283;29;20076;-69
2023/04/06 10:45:21;;;;;;;14.30;10.20;;;;;;;-150.27;100.00;61272.81;5069495;29;20041;-67
2023/04/06 10:47:54;;;;;;;15.47;10.30;;;;;;;-150.27;100.00;61272.81;5040106;29;20025;-67
2023/04/06 10:50:25;;;;;;;15.87;11.50;;;;;;;-150.27;100.00;61272.81;5054108;29;20029;-67
2023/04/06 10:53:02;;;;;;;16.10;10.80;;;;;;;-150.27;100.00;61272.81;5060047;29;20049;-67
2023/04/06 10:55:34;;;;;;;12.93;8.43;;;;;;;-150.27;100.00;61272.81;5051075;29;20037;-67
2023/04/06 10:58:08;;;;;;;15.10;8.70;;;;;;;-150.27;100.00;61272.81;5050824;29;20025;-67
2023/04/06 11:00:49;;;;;;;14.15;8.25;;;;;;;-150.27;100.00;61272.81;5054354;29;20542;-67
2023/04/06 11:03:21;;;;;;;9.30;7.00;;;;;;;-150.27;100.00;61272.81;5045283;29;20040;-70
2023/04/06 11:05:52;;;;;;;12.40;7.63;;;;;;;-150.27;100.00;61272.81;5051191;29;20112;-68
2023/04/06 11:08:27;;;;;;;12.17;7.97;;;;;;;-150.27;100.00;61272.81;5058671;29;20037;-72
2023/04/06 11:11:09;;;;;;;12.48;8.20;;;;;;;-150.27;100.00;61272.81;5052018;29;20029;-70
2023/04/06 11:13:41;;;;;;;11.67;7.33;;;;;;;-150.27;100.00;61272.81;5066368;29;20109;-69
2023/04/06 11:16:18;;;;;;;10.50;8.10;;;;;;;-150.27;100.00;61272.81;5070069;29;20034;-70